Time;durP1;ratioP1;P1;durP2;ratioP2;P2;SDS_P1;SDS_P2;PMS_P1;PMS_P2;Temp;Humidity;BMP_temperature;BMP_pressure;BME280_temperature;BME280_humidity;BME280_pressure;Samples;Min_cycle;Max_cycle;Signal;HPM_P1;HPM_P2
2023/11/27 00:01:12;;;;;;;8.05;7.25;;;4.70;99.90;;;;;;4972236;28;20310;-81
2023/11/27 00:03:40;;;;;;;7.28;6.55;;;4.70;99.90;;;;;;4972952;28;20240;-81
2023/11/27 00:06:09;;;;;;;7.05;6.45;;;4.70;99.90;;;;;;4972286;28;20219;-80
2023/11/27 00:08:53;;;;;;;6.95;6.03;;;4.70;99.90;;;;;;4972917;28;20239;-81
2023/11/27 00:11:20;;;;;;;7.07;6.38;;;4.70;99.90;;;;;;4972199;28;20247;-79
2023/11/27 00:13:47;;;;;;;6.78;6.18;;;4.70;99.90;;;;;;4973346;28;20227;-79
2023/11/27 00:16:16;;;;;;;7.07;6.10;;;4.70;99.90;;;;;;4952903;28;20685;-80
2023/11/27 00:18:46;;;;;;;6.82;6.13;;;4.70;99.90;;;;;;4955780;29;20323;-80
2023/11/27 00:21:15;;;;;;;8.25;6.45;;;4.70;99.90;;;;;;4953817;29;20228;-81
2023/11/27 00:23:42;;;;;;;6.90;6.22;;;4.70;99.90;;;;;;4955574;28;20235;-81
2023/11/27 00:26:09;;;;;;;7.18;6.35;;;4.70;99.90;;;;;;4955148;29;20228;-81
2023/11/27 00:28:36;;;;;;;6.75;6.05;;;4.80;99.90;;;;;;4957640;28;20230;-81
2023/11/27 00:31:09;;;;;;;6.53;5.93;;;4.80;99.90;;;;;;4954842;29;20658;-81
2023/11/27 00:33:36;;;;;;;9.02;7.53;;;4.70;99.90;;;;;;4949319;28;20231;-81
2023/11/27 00:36:06;;;;;;;9.88;8.43;;;4.70;99.90;;;;;;4955468;29;20263;-81
2023/11/27 00:38:34;;;;;;;9.07;8.20;;;4.70;99.90;;;;;;4947688;29;20533;-81
2023/11/27 00:41:01;;;;;;;9.85;7.78;;;4.70;99.90;;;;;;4936281;29;20255;-81
2023/11/27 00:43:29;;;;;;;10.52;7.80;;;4.70;99.90;;;;;;4934917;29;20687;-81
2023/11/27 00:45:56;;;;;;;9.05;8.15;;;4.70;99.90;;;;;;4944157;29;20243;-80
2023/11/27 00:48:23;;;;;;;8.02;7.20;;;4.70;99.90;;;;;;4958264;29;20235;-81
2023/11/27 00:50:51;;;;;;;8.20;7.38;;;4.70;99.90;;;;;;4959027;29;20247;-80
2023/11/27 00:53:18;;;;;;;7.95;7.20;;;4.70;99.90;;;;;;4952958;28;20693;-80
2023/11/27 00:55:50;;;;;;;8.88;7.97;;;4.80;99.90;;;;;;4959042;29;20239;-81
2023/11/27 00:58:17;;;;;;;8.23;7.20;;;4.80;99.90;;;;;;4958807;29;20291;-80
2023/11/27 01:00:44;;;;;;;13.43;9.15;;;4.80;99.90;;;;;;4973795;28;20224;-80
2023/11/27 01:03:11;;;;;;;8.10;7.35;;;4.80;99.90;;;;;;4947922;28;20236;-80
2023/11/27 01:05:39;;;;;;;10.27;8.05;;;4.80;99.90;;;;;;4959043;29;20244;-81
2023/11/27 01:08:08;;;;;;;9.85;8.50;;;4.80;99.90;;;;;;4958385;29;20239;-81
2023/11/27 01:10:36;;;;;;;9.48;8.48;;;4.80;99.90;;;;;;4958246;29;20536;-80
2023/11/27 01:13:04;;;;;;;9.50;8.50;;;4.80;99.90;;;;;;4958819;28;20694;-80
2023/11/27 01:15:31;;;;;;;11.52;8.65;;;4.80;99.90;;;;;;4957926;28;20236;-80
2023/11/27 01:18:01;;;;;;;8.93;8.02;;;4.80;99.90;;;;;;4958783;28;20224;-81
2023/11/27 01:20:28;;;;;;;10.07;9.07;;;4.80;99.90;;;;;;4958415;28;20765;-81
2023/11/27 01:22:54;;;;;;;8.52;7.72;;;4.80;99.90;;;;;;4958293;28;20235;-80
2023/11/27 01:25:22;;;;;;;9.05;8.18;;;4.80;99.90;;;;;;4957335;28;20224;-81
2023/11/27 01:27:53;;;;;;;10.68;8.38;;;4.80;99.90;;;;;;4957965;28;20291;-80
2023/11/27 01:30:23;;;;;;;9.05;7.40;;;4.80;99.90;;;;;;4971124;28;20223;-81
2023/11/27 01:32:50;;;;;;;8.43;7.30;;;4.90;99.90;;;;;;4977186;28;20239;-81
2023/11/27 01:35:17;;;;;;;11.35;9.05;;;4.90;99.90;;;;;;4976311;28;20232;-81
2023/11/27 01:37:45;;;;;;;9.45;8.45;;;4.90;99.90;;;;;;4962900;28;20672;-80
2023/11/27 01:40:12;;;;;;;12.07;8.45;;;4.90;99.90;;;;;;4957742;29;20260;-80
2023/11/27 01:42:40;;;;;;;9.52;8.52;;;4.90;99.90;;;;;;4957604;29;20563;-80
2023/11/27 01:45:08;;;;;;;11.07;8.50;;;4.90;99.90;;;;;;4958300;29;20232;-80
2023/11/27 01:47:36;;;;;;;10.80;8.05;;;4.90;99.90;;;;;;4957500;29;20239;-80
2023/11/27 01:50:05;;;;;;;11.20;8.00;;;4.90;99.90;;;;;;4958063;29;20236;-81
2023/11/27 01:52:34;;;;;;;8.13;7.35;;;4.90;99.90;;;;;;4956583;29;20586;-80
2023/11/27 01:55:01;;;;;;;7.70;6.97;;;4.90;99.90;;;;;;4957729;29;20402;-80
2023/11/27 01:57:29;;;;;;;7.90;7.10;;;4.90;99.90;;;;;;4955954;28;20307;-80
2023/11/27 01:59:57;;;;;;;8.20;7.38;;;4.90;99.90;;;;;;4957982;29;20231;-80
2023/11/27 02:02:24;;;;;;;10.10;6.78;;;4.90;99.90;;;;;;4957217;29;20232;-81
2023/11/27 02:04:53;;;;;;;8.45;7.55;;;5.00;99.90;;;;;;4957279;29;20235;-80
2023/11/27 02:07:20;;;;;;;8.95;6.97;;;4.90;99.90;;;;;;4956715;29;20228;-80
2023/11/27 02:09:47;;;;;;;7.68;6.90;;;4.90;99.90;;;;;;4957738;29;20224;-80
2023/11/27 02:12:15;;;;;;;8.60;6.63;;;4.90;99.90;;;;;;4957378;28;20232;-80
2023/11/27 02:14:42;;;;;;;7.60;6.40;;;4.90;99.90;;;;;;4957172;29;20602;-80
2023/11/27 02:17:10;;;;;;;8.88;7.97;;;5.00;99.90;;;;;;4957392;29;20674;-80
2023/11/27 02:19:40;;;;;;;8.65;7.68;;;5.00;99.90;;;;;;4957070;29;20228;-80
2023/11/27 02:22:08;;;;;;;7.72;6.45;;;5.00;99.90;;;;;;4957493;28;20236;-80
2023/11/27 02:24:36;;;;;;;6.40;5.90;;;5.00;99.90;;;;;;4956878;29;20693;-81
2023/11/27 02:27:03;;;;;;;6.25;5.65;;;5.00;99.90;;;;;;4957223;29;20316;-81
2023/11/27 02:29:33;;;;;;;6.40;5.80;;;5.00;99.90;;;;;;4963725;28;20220;-81
2023/11/27 02:32:02;;;;;;;7.32;6.45;;;5.00;99.90;;;;;;4976465;28;20231;-81
2023/11/27 02:34:29;;;;;;;7.05;6.35;;;5.00;99.90;;;;;;4975703;28;20570;-80
2023/11/27 02:36:56;;;;;;;6.28;5.68;;;5.00;99.90;;;;;;4968007;28;20315;-80
2023/11/27 02:39:24;;;;;;;7.80;6.20;;;5.00;99.90;;;;;;4955763;29;20228;-81
2023/11/27 02:41:53;;;;;;;9.57;5.47;;;5.00;99.90;;;;;;4956980;29;20263;-80
2023/11/27 02:44:20;;;;;;;9.38;6.35;;;5.00;99.90;;;;;;4957075;29;20694;-81
2023/11/27 02:46:47;;;;;;;6.88;6.28;;;5.00;99.90;;;;;;4956507;29;20226;-81
2023/11/27 02:49:14;;;;;;;7.90;6.43;;;5.00;99.90;;;;;;4956983;29;20228;-81
2023/11/27 02:51:41;;;;;;;10.32;7.45;;;5.00;99.90;;;;;;4956099;29;20282;-81
2023/11/27 02:54:10;;;;;;;7.78;7.03;;;5.00;99.90;;;;;;4956534;29;20232;-81
2023/11/27 02:56:37;;;;;;;8.85;8.05;;;5.00;99.90;;;;;;4956293;29;20247;-81
2023/11/27 02:59:05;;;;;;;8.45;7.30;;;5.00;99.90;;;;;;4956586;29;20262;-80
2023/11/27 03:01:32;;;;;;;7.20;6.53;;;5.00;99.90;;;;;;4955977;29;20240;-81
2023/11/27 03:03:59;;;;;;;8.32;7.43;;;5.00;99.90;;;;;;4956792;29;20306;-80
2023/11/27 03:06:26;;;;;;;9.20;8.20;;;5.00;99.90;;;;;;4956307;28;20232;-81
2023/11/27 03:09:01;;;;;;;8.60;7.80;;;4.90;99.90;;;;;;4956528;28;20224;-80
2023/11/27 03:11:28;;;;;;;10.93;8.40;;;4.90;99.90;;;;;;4956375;28;20227;-80
2023/11/27 03:13:55;;;;;;;9.00;8.10;;;4.90;99.90;;;;;;4957339;28;20235;-80
2023/11/27 03:16:23;;;;;;;10.02;8.13;;;4.90;99.90;;;;;;4956880;28;20232;-80
2023/11/27 03:18:50;;;;;;;8.38;7.55;;;4.90;99.90;;;;;;4954257;28;20323;-80
2023/11/27 03:21:22;;;;;;;8.85;7.95;;;4.90;99.90;;;;;;4956976;28;20234;-80
2023/11/27 03:23:56;;;;;;;8.95;7.20;;;4.90;99.90;;;;;;4956090;28;20260;-80
2023/11/27 03:26:23;;;;;;;10.20;6.88;;;4.90;99.90;;;;;;4957474;28;20232;-80
2023/11/27 03:28:51;;;;;;;7.13;6.53;;;4.90;99.90;;;;;;4958604;28;20689;-80
2023/11/27 03:31:18;;;;;;;6.88;6.20;;;4.80;99.90;;;;;;4975863;28;20231;-80
2023/11/27 03:33:46;;;;;;;8.73;7.35;;;4.80;99.90;;;;;;4967164;28;20294;-80
2023/11/27 03:36:13;;;;;;;8.07;7.38;;;4.80;99.90;;;;;;4973132;28;20310;-80
2023/11/27 03:38:41;;;;;;;8.40;7.50;;;4.80;99.90;;;;;;4955851;29;20291;-80
2023/11/27 03:41:20;;;;;;;7.82;6.25;;;4.80;99.90;;;;;;4957846;29;20236;-80
2023/11/27 03:43:47;;;;;;;10.80;7.80;;;4.80;99.90;;;;;;4956708;29;20232;-80
2023/11/27 03:46:15;;;;;;;8.70;7.88;;;4.70;99.90;;;;;;4956701;29;20232;-79
2023/11/27 03:48:42;;;;;;;8.98;7.68;;;4.70;99.90;;;;;;4956804;29;20228;-80
2023/11/27 03:51:13;;;;;;;7.88;6.90;;;4.70;99.90;;;;;;4957397;29;20230;-79
2023/11/27 03:53:40;;;;;;;8.98;7.43;;;4.70;99.90;;;;;;4956369;28;20574;-80
2023/11/27 03:56:08;;;;;;;9.90;7.47;;;4.70;99.90;;;;;;4957721;29;20232;-79
2023/11/27 03:58:35;;;;;;;9.02;7.25;;;4.70;99.90;;;;;;4956328;29;20223;-80
2023/11/27 04:01:04;;;;;;;8.65;7.85;;;4.70;99.90;;;;;;4957774;29;20298;-80
2023/11/27 04:03:31;;;;;;;10.05;8.30;;;4.60;99.90;;;;;;4957922;28;20544;-80
2023/11/27 04:05:58;;;;;;;9.60;7.57;;;4.60;99.90;;;;;;4957928;29;20318;-80
2023/11/27 04:08:27;;;;;;;10.43;7.65;;;4.60;99.90;;;;;;4958077;29;20259;-80
2023/11/27 04:10:54;;;;;;;9.93;8.00;;;4.60;99.90;;;;;;4957190;29;20238;-79
2023/11/27 04:13:38;;;;;;;11.23;8.20;;;4.60;99.90;;;;;;4946393;28;20236;-81
2023/11/27 04:16:12;;;;;;;10.40;8.40;;;4.60;99.90;;;;;;4945850;28;20227;-80
2023/11/27 04:18:40;;;;;;;9.40;8.45;;;4.60;99.90;;;;;;4943931;29;20227;-80
2023/11/27 04:21:07;;;;;;;12.80;8.25;;;4.60;99.90;;;;;;4958907;28;20227;-80
2023/11/27 04:23:36;;;;;;;17.40;9.57;;;4.60;99.90;;;;;;4961150;28;20235;-80
2023/11/27 04:26:03;;;;;;;10.55;9.52;;;4.60;99.90;;;;;;4959240;29;20216;-80
2023/11/27 04:28:30;;;;;;;11.20;9.10;;;4.60;99.90;;;;;;4961381;29;20227;-80
2023/11/27 04:30:58;;;;;;;11.50;9.43;;;4.60;99.90;;;;;;4982136;28;20246;-80
2023/11/27 04:33:25;;;;;;;9.35;8.40;;;4.60;99.90;;;;;;4985030;28;20238;-80
2023/11/27 04:35:52;;;;;;;10.75;8.65;;;4.60;99.90;;;;;;4984137;28;20227;-79
2023/11/27 04:38:19;;;;;;;11.95;9.75;;;4.60;99.90;;;;;;4963066;28;20275;-80
2023/11/27 04:40:47;;;;;;;9.02;8.05;;;4.70;99.90;;;;;;4962513;29;20225;-81
2023/11/27 04:43:14;;;;;;;12.65;8.70;;;4.70;99.90;;;;;;4968169;29;20228;-80
2023/11/27 04:45:41;;;;;;;10.65;9.65;;;4.70;99.90;;;;;;4967790;29;20220;-81
2023/11/27 04:48:08;;;;;;;11.15;9.15;;;4.70;99.90;;;;;;4963671;29;20603;-80
2023/11/27 04:50:35;;;;;;;11.40;8.88;;;4.70;99.90;;;;;;4963764;29;20220;-79
2023/11/27 04:53:02;;;;;;;11.50;8.90;;;4.70;99.90;;;;;;4959470;28;20235;-80
2023/11/27 04:55:29;;;;;;;11.50;10.30;;;4.70;99.90;;;;;;4961104;29;20224;-80
2023/11/27 04:57:58;;;;;;;9.32;8.43;;;4.60;99.90;;;;;;4960575;29;20238;-80
2023/11/27 05:00:25;;;;;;;10.52;8.68;;;4.70;99.90;;;;;;4959213;29;20219;-80
2023/11/27 05:02:52;;;;;;;10.82;9.60;;;4.70;99.90;;;;;;4958952;29;20228;-80
2023/11/27 05:05:20;;;;;;;9.05;8.07;;;4.70;99.90;;;;;;4959149;29;20228;-79
2023/11/27 05:07:47;;;;;;;9.05;8.15;;;4.70;99.90;;;;;;4958643;29;20228;-80
2023/11/27 05:10:15;;;;;;;17.10;9.65;;;4.70;99.90;;;;;;4958658;29;20220;-80
2023/11/27 05:12:42;;;;;;;10.10;8.77;;;4.70;99.90;;;;;;4959962;29;20239;-81
2023/11/27 05:15:11;;;;;;;9.63;8.63;;;4.70;99.90;;;;;;4961467;29;20227;-80
2023/11/27 05:17:38;;;;;;;10.00;7.93;;;4.70;99.90;;;;;;4961951;29;20242;-79
2023/11/27 05:20:08;;;;;;;9.20;8.30;;;4.70;99.90;;;;;;4959764;29;20591;-79
2023/11/27 05:22:36;;;;;;;11.13;8.63;;;4.70;99.90;;;;;;4959054;29;20311;-79
2023/11/27 05:25:03;;;;;;;10.02;8.95;;;4.70;99.90;;;;;;4958865;29;20228;-80
2023/11/27 05:27:30;;;;;;;8.95;8.15;;;4.70;99.90;;;;;;4958868;29;20251;-80
2023/11/27 05:29:57;;;;;;;10.02;8.30;;;4.70;99.90;;;;;;4958127;29;20243;-79
2023/11/27 05:32:26;;;;;;;9.23;7.80;;;4.70;99.90;;;;;;4957778;28;20224;-79
2023/11/27 05:34:53;;;;;;;9.70;8.40;;;4.80;99.90;;;;;;4958183;29;20235;-79
2023/11/27 05:37:20;;;;;;;9.30;7.90;;;4.80;99.90;;;;;;4959325;29;20311;-79
2023/11/27 05:39:47;;;;;;;12.77;9.10;;;4.80;99.90;;;;;;4959655;29;20247;-80
2023/11/27 05:42:20;;;;;;;8.45;7.15;;;4.80;99.90;;;;;;4958514;29;20303;-80
2023/11/27 05:44:48;;;;;;;9.52;8.57;;;4.80;99.90;;;;;;4958487;29;20287;-80
2023/11/27 05:47:15;;;;;;;9.43;7.43;;;4.80;99.90;;;;;;4958684;29;20228;-80
2023/11/27 05:49:44;;;;;;;9.77;6.80;;;4.80;99.90;;;;;;4957854;29;20238;-80
2023/11/27 05:52:11;;;;;;;11.50;8.50;;;4.80;99.90;;;;;;4957876;29;20228;-80
2023/11/27 05:54:38;;;;;;;9.93;9.05;;;4.80;99.90;;;;;;4957947;29;20235;-80
2023/11/27 05:57:05;;;;;;;7.50;6.80;;;4.80;99.90;;;;;;4957545;29;20231;-79
2023/11/27 05:59:31;;;;;;;9.10;7.07;;;4.80;99.90;;;;;;4958088;29;20307;-80
2023/11/27 06:02:02;;;;;;;10.40;7.83;;;4.70;99.90;;;;;;4958385;29;20259;-79
2023/11/27 06:04:29;;;;;;;10.52;7.72;;;4.70;99.90;;;;;;4959540;29;20472;-80
2023/11/27 06:06:58;;;;;;;12.07;8.43;;;4.70;99.90;;;;;;4956772;29;20227;-81
2023/11/27 06:09:26;;;;;;;9.63;8.27;;;4.70;99.90;;;;;;4958804;29;20623;-80
2023/11/27 06:11:54;;;;;;;8.20;7.40;;;4.70;99.90;;;;;;4957377;29;20228;-80
2023/11/27 06:14:22;;;;;;;10.27;8.13;;;4.70;99.90;;;;;;4957606;29;20224;-79
2023/11/27 06:16:51;;;;;;;11.15;7.88;;;4.70;99.90;;;;;;4957555;29;20224;-80
2023/11/27 06:19:19;;;;;;;13.15;9.40;;;4.60;99.90;;;;;;4956990;29;20234;-80
2023/11/27 06:21:46;;;;;;;10.20;9.20;;;4.60;99.90;;;;;;4957288;29;20287;-79
2023/11/27 06:24:15;;;;;;;9.75;8.60;;;4.60;99.90;;;;;;4956763;29;20228;-80
2023/11/27 06:26:42;;;;;;;10.38;8.13;;;4.60;99.90;;;;;;4957484;29;20228;-80
2023/11/27 06:29:10;;;;;;;10.52;9.40;;;4.60;99.90;;;;;;4956690;29;20585;-79
2023/11/27 06:31:37;;;;;;;8.52;7.72;;;4.60;99.90;;;;;;4956690;29;20248;-79
2023/11/27 06:34:05;;;;;;;8.57;7.68;;;4.60;99.90;;;;;;4956687;29;20232;-81
2023/11/27 06:36:32;;;;;;;9.68;7.40;;;4.60;99.90;;;;;;4957198;29;20232;-80
2023/11/27 06:39:08;;;;;;;8.43;7.47;;;4.60;99.90;;;;;;4954921;29;20307;-80
2023/11/27 06:41:36;;;;;;;9.40;8.50;;;4.60;99.90;;;;;;4957111;29;20224;-80
2023/11/27 06:44:03;;;;;;;11.93;8.15;;;4.60;99.90;;;;;;4956174;28;20228;-80
2023/11/27 06:46:31;;;;;;;11.25;8.07;;;4.70;99.90;;;;;;4957025;29;20224;-81
2023/11/27 06:48:58;;;;;;;10.25;7.20;;;4.70;99.90;;;;;;4957344;29;20226;-80
2023/11/27 06:51:25;;;;;;;9.30;7.97;;;4.70;99.90;;;;;;4956391;29;20228;-81
2023/11/27 06:53:52;;;;;;;11.10;6.47;;;4.70;99.90;;;;;;4957451;29;20254;-81
2023/11/27 06:56:19;;;;;;;11.10;6.93;;;4.70;99.90;;;;;;4956518;29;20232;-80
2023/11/27 06:58:51;;;;;;;7.25;6.53;;;4.80;99.90;;;;;;4956341;29;20235;-80
2023/11/27 07:01:18;;;;;;;7.25;6.55;;;4.70;99.90;;;;;;4955887;29;20259;-80
2023/11/27 07:03:47;;;;;;;9.02;6.68;;;4.80;99.90;;;;;;4946178;29;20232;-81
2023/11/27 07:06:14;;;;;;;8.55;6.85;;;4.80;99.90;;;;;;4954905;29;20243;-80
2023/11/27 07:08:41;;;;;;;6.75;6.13;;;4.80;99.90;;;;;;4956575;29;20223;-79
2023/11/27 07:11:11;;;;;;;8.85;7.45;;;4.80;99.90;;;;;;4955441;29;20228;-81
2023/11/27 07:13:38;;;;;;;10.15;6.90;;;4.80;99.90;;;;;;4956766;29;20228;-79
2023/11/27 07:16:07;;;;;;;13.02;6.75;;;4.80;99.90;;;;;;4955058;29;20687;-79
2023/11/27 07:18:35;;;;;;;8.15;6.15;;;4.80;99.90;;;;;;4956263;29;20216;-80
2023/11/27 07:21:02;;;;;;;7.43;6.60;;;4.80;99.90;;;;;;4956378;29;20239;-80
2023/11/27 07:23:29;;;;;;;8.65;5.57;;;4.80;99.90;;;;;;4955709;29;20232;-80
2023/11/27 07:25:56;;;;;;;6.10;5.50;;;4.80;99.90;;;;;;4956358;29;20232;-81
2023/11/27 07:28:25;;;;;;;9.30;5.65;;;4.90;99.90;;;;;;4955451;29;20240;-80
2023/11/27 07:30:53;;;;;;;7.85;6.85;;;4.90;99.90;;;;;;4955739;29;20279;-80
2023/11/27 07:33:22;;;;;;;7.22;5.85;;;4.90;99.90;;;;;;4955536;29;20236;-80
2023/11/27 07:35:50;;;;;;;6.95;6.30;;;4.90;99.90;;;;;;4956242;29;20342;-79
2023/11/27 07:38:20;;;;;;;10.38;6.80;;;4.90;99.90;;;;;;4955619;29;20256;-80
2023/11/27 07:40:48;;;;;;;8.40;6.38;;;4.90;99.90;;;;;;4954819;29;20227;-80
2023/11/27 07:43:15;;;;;;;8.98;6.03;;;4.90;99.90;;;;;;4955439;29;20294;-80
2023/11/27 07:45:42;;;;;;;8.32;6.45;;;4.90;99.90;;;;;;4955068;29;20230;-80
2023/11/27 07:48:10;;;;;;;7.90;6.45;;;4.90;99.90;;;;;;4955913;29;20318;-80
2023/11/27 07:50:38;;;;;;;8.38;7.13;;;5.00;99.90;;;;;;4955165;29;20291;-80
2023/11/27 07:53:05;;;;;;;6.30;5.70;;;4.90;99.90;;;;;;4955590;29;20258;-80
2023/11/27 07:55:33;;;;;;;11.25;6.82;;;4.90;99.90;;;;;;4954633;28;20228;-80
2023/11/27 07:58:00;;;;;;;6.68;5.43;;;4.90;99.90;;;;;;4955696;29;20232;-80
2023/11/27 08:00:31;;;;;;;7.88;6.90;;;5.00;99.90;;;;;;4955235;29;20235;-80
2023/11/27 08:03:01;;;;;;;8.07;5.57;;;5.00;99.90;;;;;;4955529;29;20231;-80
2023/11/27 08:05:29;;;;;;;6.47;5.88;;;5.00;99.90;;;;;;4955128;29;20235;-80
2023/11/27 08:07:57;;;;;;;6.20;5.57;;;5.00;99.90;;;;;;4955780;29;20579;-81
2023/11/27 08:10:24;;;;;;;9.38;6.50;;;5.00;99.90;;;;;;4955128;29;20307;-81
2023/11/27 08:12:52;;;;;;;6.63;6.03;;;5.00;99.90;;;;;;4955416;29;20299;-80
2023/11/27 08:15:22;;;;;;;5.80;5.20;;;5.00;99.90;;;;;;4955033;29;20275;-80
2023/11/27 08:17:54;;;;;;;6.88;6.00;;;5.10;99.90;;;;;;4955635;29;20228;-80
2023/11/27 08:20:27;;;;;;;6.60;6.00;;;5.00;99.90;;;;;;4954819;29;20604;-80
2023/11/27 08:22:54;;;;;;;6.10;5.50;;;5.00;99.90;;;;;;4955229;29;20624;-80
2023/11/27 08:25:23;;;;;;;9.60;6.40;;;5.00;99.90;;;;;;4955214;29;20228;-81
2023/11/27 08:27:52;;;;;;;6.00;5.50;;;5.00;99.90;;;;;;4955624;29;20240;-81
2023/11/27 08:30:21;;;;;;;7.93;6.75;;;5.10;99.90;;;;;;4945323;29;20235;-81
2023/11/27 08:32:49;;;;;;;6.78;5.10;;;5.10;99.90;;;;;;4955068;29;20234;-80
2023/11/27 08:35:19;;;;;;;8.18;6.22;;;5.00;99.90;;;;;;4955148;29;20254;-81
2023/11/27 08:37:46;;;;;;;13.32;6.97;;;5.00;99.90;;;;;;4955020;29;20240;-81
2023/11/27 08:40:14;;;;;;;6.22;5.63;;;5.00;99.90;;;;;;4955710;29;20235;-81
2023/11/27 08:42:43;;;;;;;5.88;5.38;;;5.00;99.90;;;;;;4954689;29;20299;-81
2023/11/27 08:45:16;;;;;;;6.47;5.68;;;5.10;99.90;;;;;;4955679;29;20552;-81
2023/11/27 08:47:50;;;;;;;7.22;5.80;;;5.10;99.90;;;;;;4954548;29;20251;-81
2023/11/27 08:50:18;;;;;;;10.02;6.65;;;5.10;99.90;;;;;;4955403;29;20230;-81
2023/11/27 08:52:46;;;;;;;6.60;6.00;;;5.20;99.90;;;;;;4954837;29;20235;-80
2023/11/27 08:55:18;;;;;;;5.80;5.22;;;5.10;99.90;;;;;;4955117;29;20228;-80
2023/11/27 08:57:47;;;;;;;8.73;6.38;;;5.20;99.90;;;;;;4954007;29;20567;-80
2023/11/27 09:00:18;;;;;;;11.18;6.13;;;5.20;99.90;;;;;;4955261;29;20702;-81
2023/11/27 09:02:45;;;;;;;6.50;5.90;;;5.20;99.90;;;;;;4954766;29;20291;-80
2023/11/27 09:05:13;;;;;;;7.53;6.82;;;5.30;99.90;;;;;;4954514;29;20682;-80
2023/11/27 09:07:40;;;;;;;8.93;6.55;;;5.20;99.90;;;;;;4956844;28;20597;-80
2023/11/27 09:10:08;;;;;;;6.28;5.68;;;5.20;99.90;;;;;;4958781;29;20235;-81
2023/11/27 09:12:36;;;;;;;9.25;5.70;;;5.20;99.90;;;;;;4958841;29;20545;-80
2023/11/27 09:15:09;;;;;;;6.47;5.70;;;5.20;99.90;;;;;;4959487;29;20295;-80
2023/11/27 09:17:37;;;;;;;8.90;7.00;;;5.20;99.90;;;;;;4958686;29;20303;-80
2023/11/27 09:20:06;;;;;;;8.70;5.82;;;5.20;99.90;;;;;;4958953;29;20535;-80
2023/11/27 09:22:33;;;;;;;8.48;7.03;;;5.10;99.90;;;;;;4958305;29;20232;-80
2023/11/27 09:25:00;;;;;;;10.93;8.32;;;5.10;99.90;;;;;;4959056;29;20227;-81
2023/11/27 09:27:32;;;;;;;10.35;7.22;;;5.20;99.90;;;;;;4958859;29;20228;-81
2023/11/27 09:30:02;;;;;;;6.70;6.10;;;5.20;99.90;;;;;;4959420;29;20224;-80
2023/11/27 09:32:31;;;;;;;8.00;6.20;;;5.20;99.90;;;;;;4958349;29;20235;-81
2023/11/27 09:35:00;;;;;;;9.40;6.50;;;5.20;99.90;;;;;;4958071;29;20251;-81
2023/11/27 09:37:27;;;;;;;7.65;6.32;;;5.10;99.90;;;;;;4958317;29;20228;-81
2023/11/27 09:39:54;;;;;;;6.20;5.60;;;5.10;99.90;;;;;;4958154;29;20228;-81
2023/11/27 09:42:24;;;;;;;6.75;6.10;;;5.20;99.90;;;;;;4958453;29;20228;-79
2023/11/27 09:44:51;;;;;;;6.78;5.93;;;5.20;99.90;;;;;;4958518;29;20231;-79
2023/11/27 09:47:19;;;;;;;5.95;5.40;;;5.10;99.90;;;;;;4959301;29;20224;-79
2023/11/27 09:49:49;;;;;;;7.03;5.50;;;5.10;99.90;;;;;;4958499;29;20220;-80
2023/11/27 09:52:19;;;;;;;7.07;6.15;;;5.20;99.90;;;;;;4958575;29;20239;-79
2023/11/27 09:54:51;;;;;;;6.80;6.20;;;5.20;99.90;;;;;;4958018;29;20243;-80
2023/11/27 09:57:18;;;;;;;7.25;6.15;;;5.20;99.90;;;;;;4958248;29;20231;-79
2023/11/27 09:59:45;;;;;;;8.20;7.40;;;5.30;99.90;;;;;;4957097;29;20220;-80
2023/11/27 10:02:12;;;;;;;10.90;7.57;;;5.20;99.90;;;;;;4957770;29;20286;-80
2023/11/27 10:04:42;;;;;;;7.80;6.53;;;5.20;99.90;;;;;;4956873;29;20243;-80
2023/11/27 10:07:13;;;;;;;7.28;6.57;;;5.20;99.90;;;;;;4957483;29;20658;-80
2023/11/27 10:09:44;;;;;;;8.07;7.13;;;5.30;99.90;;;;;;4957242;29;20238;-81
2023/11/27 10:12:12;;;;;;;8.38;7.57;;;5.20;99.90;;;;;;4957430;29;20224;-80
2023/11/27 10:14:43;;;;;;;12.00;7.63;;;5.30;99.90;;;;;;4956632;29;20224;-81
2023/11/27 10:17:12;;;;;;;9.05;8.15;;;5.30;99.90;;;;;;4956998;28;20224;-81
2023/11/27 10:19:41;;;;;;;8.43;7.63;;;5.30;99.90;;;;;;4957035;29;20227;-80
2023/11/27 10:22:12;;;;;;;11.68;8.85;;;5.30;99.90;;;;;;4956823;29;20235;-79
2023/11/27 10:24:44;;;;;;;11.65;8.73;;;5.30;99.90;;;;;;4957412;29;20224;-81
2023/11/27 10:27:12;;;;;;;13.80;8.35;;;5.40;99.90;;;;;;4956924;29;20263;-80
2023/11/27 10:29:43;;;;;;;9.73;8.02;;;5.50;99.90;;;;;;4957179;29;20224;-80
2023/11/27 10:32:12;;;;;;;11.63;7.93;;;5.50;99.90;;;;;;4956775;29;20235;-81
2023/11/27 10:34:40;;;;;;;9.57;8.35;;;5.60;99.90;;;;;;4957393;29;20716;-80
2023/11/27 10:37:08;;;;;;;12.05;7.60;;;5.40;99.90;;;;;;4957041;29;20357;-80
2023/11/27 10:39:37;;;;;;;11.57;8.20;;;5.40;99.90;;;;;;4962504;29;20228;-80
2023/11/27 10:42:07;;;;;;;11.30;8.80;;;5.40;99.90;;;;;;4960346;29;20235;-80
2023/11/27 10:44:47;;;;;;;8.98;7.95;;;5.40;99.90;;;;;;4960537;29;20234;-80
2023/11/27 10:47:16;;;;;;;10.18;8.65;;;5.40;99.90;;;;;;4956905;29;20232;-80
2023/11/27 10:49:44;;;;;;;12.40;8.80;;;5.40;99.90;;;;;;4958260;29;20777;-80
2023/11/27 10:52:14;;;;;;;12.45;10.55;;;5.50;99.90;;;;;;4958722;29;20228;-80
2023/11/27 10:54:46;;;;;;;10.95;9.43;;;5.50;99.90;;;;;;4950622;28;20231;-80
2023/11/27 10:57:18;;;;;;;11.60;8.93;;;5.60;99.90;;;;;;4957474;29;20262;-81
2023/11/27 10:59:47;;;;;;;12.85;10.40;;;5.70;99.90;;;;;;4961005;29;20220;-80
2023/11/27 11:02:26;;;;;;;16.40;10.63;;;5.70;99.90;;;;;;4959370;29;20247;-80
2023/11/27 11:04:57;;;;;;;12.55;9.70;;;5.80;99.90;;;;;;4960343;29;20287;-79
2023/11/27 11:07:39;;;;;;;12.73;10.50;;;5.80;99.90;;;;;;4949373;29;20238;-79
2023/11/27 11:10:31;;;;;;;15.93;11.00;;;5.80;99.90;;;;;;4945790;29;20293;-79
2023/11/27 11:13:07;;;;;;;15.73;12.52;;;5.80;99.90;;;;;;4957262;29;20555;-80
2023/11/27 11:15:44;;;;;;;15.60;11.70;;;5.90;99.90;;;;;;4958003;29;20238;-79
2023/11/27 11:18:17;;;;;;;13.15;11.40;;;5.80;99.90;;;;;;4957895;29;20238;-80
2023/11/27 11:21:02;;;;;;;13.50;11.20;;;5.80;99.90;;;;;;4957110;29;20231;-81
2023/11/27 11:23:40;;;;;;;13.57;11.27;;;5.90;99.90;;;;;;4956983;29;20224;-80
2023/11/27 11:26:32;;;;;;;18.42;11.35;;;5.80;99.90;;;;;;4955420;29;20231;-80
2023/11/27 11:29:11;;;;;;;12.07;10.23;;;5.80;99.90;;;;;;4956979;28;20658;-80
2023/11/27 11:31:47;;;;;;;13.75;10.50;;;5.80;99.90;;;;;;4956362;29;20224;-79
2023/11/27 11:34:23;;;;;;;13.57;10.05;;;5.80;99.90;;;;;;4957333;29;20252;-79
2023/11/27 11:36:57;;;;;;;11.38;9.98;;;5.80;99.90;;;;;;4957695;29;20216;-80
2023/11/27 11:39:26;;;;;;;13.55;10.13;;;5.80;99.90;;;;;;4955393;29;20314;-79
2023/11/27 11:42:02;;;;;;;12.40;10.20;;;5.80;99.90;;;;;;4957615;29;20239;-80
2023/11/27 11:44:33;;;;;;;13.68;10.02;;;5.90;99.90;;;;;;4956069;29;20356;-79
2023/11/27 11:47:06;;;;;;;12.45;10.30;;;5.90;99.90;;;;;;4957427;29;20258;-79
2023/11/27 11:49:35;;;;;;;10.68;9.07;;;6.00;99.90;;;;;;4957787;29;20231;-80
2023/11/27 11:52:07;;;;;;;14.30;10.45;;;6.00;99.90;;;;;;4958089;29;20232;-80
2023/11/27 11:54:41;;;;;;;13.13;10.40;;;6.00;99.90;;;;;;4956599;29;20646;-80
2023/11/27 11:57:17;;;;;;;12.38;9.95;;;5.90;99.90;;;;;;4956388;29;20231;-79
2023/11/27 11:59:50;;;;;;;11.60;9.73;;;5.90;99.90;;;;;;4958274;29;20640;-81
2023/11/27 12:02:23;;;;;;;9.95;8.07;;;5.90;99.90;;;;;;4958761;29;20232;-80
2023/11/27 12:04:54;;;;;;;11.75;9.80;;;5.90;99.90;;;;;;4954551;29;20548;-81
2023/11/27 12:07:23;;;;;;;12.50;9.00;;;5.90;99.90;;;;;;4955246;29;20549;-80
2023/11/27 12:09:51;;;;;;;13.13;9.57;;;5.90;99.90;;;;;;4954751;29;20224;-80
2023/11/27 12:12:22;;;;;;;11.73;10.43;;;5.90;99.90;;;;;;4955637;29;20243;-80
2023/11/27 12:14:49;;;;;;;13.13;10.57;;;5.90;99.90;;;;;;4954837;29;20227;-80
2023/11/27 12:17:26;;;;;;;10.10;8.88;;;5.90;99.90;;;;;;4955757;29;20697;-80
2023/11/27 12:19:54;;;;;;;12.18;9.20;;;5.90;99.90;;;;;;4954696;29;20234;-79
2023/11/27 12:22:21;;;;;;;13.02;9.82;;;6.00;99.90;;;;;;4955203;29;20236;-80
2023/11/27 12:24:52;;;;;;;12.77;9.13;;;5.90;99.90;;;;;;4954913;29;20236;-80
2023/11/27 12:27:22;;;;;;;10.52;8.45;;;5.90;99.90;;;;;;4955126;29;20307;-79
2023/11/27 12:29:49;;;;;;;10.90;8.95;;;5.90;99.90;;;;;;4954951;29;20227;-80
2023/11/27 12:32:20;;;;;;;14.40;9.80;;;5.90;99.90;;;;;;4955203;29;20283;-81
2023/11/27 12:34:54;;;;;;;13.55;9.45;;;5.90;99.90;;;;;;4954620;29;20228;-80
2023/11/27 12:37:28;;;;;;;11.02;8.32;;;5.80;99.90;;;;;;4955314;29;20570;-80
2023/11/27 12:39:58;;;;;;;12.93;10.75;;;5.80;99.90;;;;;;4944456;29;20236;-80
2023/11/27 12:42:28;;;;;;;12.70;9.93;;;5.80;99.90;;;;;;4956618;28;20235;-80
2023/11/27 12:44:55;;;;;;;17.02;10.52;;;5.80;99.90;;;;;;4945018;29;20306;-80
2023/11/27 12:47:27;;;;;;;10.77;8.93;;;5.80;99.90;;;;;;4948929;29;20228;-80
2023/11/27 12:49:54;;;;;;;9.73;8.82;;;5.70;99.90;;;;;;4958156;29;20227;-79
2023/11/27 12:52:21;;;;;;;11.75;9.23;;;5.70;99.90;;;;;;4958280;29;20316;-80
2023/11/27 12:54:54;;;;;;;11.07;9.80;;;5.70;99.90;;;;;;4958893;29;20242;-79
2023/11/27 12:57:22;;;;;;;11.27;8.35;;;5.70;99.90;;;;;;4958137;29;20232;-80
2023/11/27 12:59:50;;;;;;;9.77;8.38;;;5.70;99.90;;;;;;4958879;29;20247;-79
2023/11/27 13:02:21;;;;;;;10.27;8.93;;;5.70;99.90;;;;;;4958307;29;20239;-79